Time;durP1;ratioP1;P1;durP2;ratioP2;P2;SDS_P1;SDS_P2;PMS_P1;PMS_P2;Temp;Humidity;BMP_temperature;BMP_pressure;BME280_temperature;BME280_humidity;BME280_pressure;Samples;Min_cycle;Max_cycle;Signal;HPM_P1;HPM_P2
2023/04/26 00:09:11;;;;;;;6.80;1.75;;;4.30;1.00;;;;;;20797793;28;20103;-42
2023/04/26 00:19:12;;;;;;;4.40;1.75;;;4.30;1.00;;;;;;20802553;28;20403;-42
2023/04/26 00:29:13;;;;;;;3.70;1.52;;;4.10;1.00;;;;;;20805199;28;20046;-42
2023/04/26 00:39:15;;;;;;;4.13;1.60;;;4.00;1.00;;;;;;20804499;28;20033;-42
2023/04/26 00:49:17;;;;;;;6.88;1.60;;;4.00;1.00;;;;;;20800903;28;20053;-42
2023/04/26 00:59:19;;;;;;;3.65;1.90;;;3.90;1.00;;;;;;20807998;28;20334;-42
2023/04/26 01:09:21;;;;;;;3.92;2.20;;;3.90;1.00;;;;;;20801250;28;20041;-42
2023/04/26 01:19:22;;;;;;;4.47;1.40;;;3.90;1.00;;;;;;20799860;28;20048;-43
2023/04/26 01:29:23;;;;;;;3.63;1.77;;;3.90;1.00;;;;;;20804914;28;20045;-42
2023/04/26 01:39:24;;;;;;;5.50;2.63;;;3.80;1.00;;;;;;20793665;28;20124;-42
2023/04/26 01:49:25;;;;;;;5.88;1.83;;;3.70;1.00;;;;;;20760437;28;20511;-42
2023/04/26 01:59:26;;;;;;;6.35;2.00;;;3.70;1.00;;;;;;20792259;28;20060;-42
2023/04/26 02:09:27;;;;;;;4.63;2.10;;;3.50;1.00;;;;;;20790636;28;20041;-42
2023/04/26 02:19:28;;;;;;;4.03;1.70;;;3.50;1.00;;;;;;20793913;28;20535;-43
2023/04/26 02:29:30;;;;;;;6.07;1.70;;;3.40;1.00;;;;;;20788145;28;20061;-42
2023/04/26 02:39:32;;;;;;;2.95;1.30;;;3.30;1.00;;;;;;20790047;28;20548;-42
2023/04/26 02:49:33;;;;;;;4.85;1.88;;;3.30;1.00;;;;;;20790517;28;20052;-42
2023/04/26 02:59:34;;;;;;;4.10;1.65;;;3.20;1.00;;;;;;20795561;28;20507;-42
2023/04/26 03:09:37;;;;;;;6.60;1.60;;;3.10;1.00;;;;;;20785227;28;20045;-43
2023/04/26 03:19:38;;;;;;;4.93;1.70;;;3.10;1.00;;;;;;20796993;28;20044;-43
2023/04/26 03:29:39;;;;;;;4.00;1.88;;;3.00;1.60;;;;;;20803955;28;20048;-43
2023/04/26 03:39:40;;;;;;;5.47;1.77;;;3.10;4.30;;;;;;20802221;28;20038;-43
2023/04/26 03:49:42;;;;;;;3.97;1.65;;;3.00;4.40;;;;;;20784326;28;20307;-43
2023/04/26 03:59:43;;;;;;;4.75;2.13;;;3.00;4.20;;;;;;20809369;28;20040;-43
2023/04/26 04:09:44;;;;;;;5.60;2.03;;;2.90;4.60;;;;;;20802392;28;20313;-43
2023/04/26 04:19:45;;;;;;;5.05;1.95;;;2.80;5.50;;;;;;20807294;28;20060;-43
2023/04/26 04:29:46;;;;;;;4.43;1.67;;;2.80;6.00;;;;;;20803313;28;20422;-43
2023/04/26 04:39:49;;;;;;;4.30;1.25;;;2.80;9.10;;;;;;20802202;28;20239;-43
2023/04/26 04:49:50;;;;;;;3.63;1.85;;;3.10;17.80;;;;;;20798589;28;20060;-43
2023/04/26 04:59:52;;;;;;;4.50;1.92;;;3.30;27.20;;;;;;20814035;28;20598;-43
2023/04/26 05:09:53;;;;;;;4.57;1.73;;;3.50;38.80;;;;;;20799240;28;20076;-43
2023/04/26 05:19:54;;;;;;;5.78;2.30;;;3.80;46.30;;;;;;20798396;28;20034;-43
2023/04/26 05:29:55;;;;;;;3.65;1.67;;;4.20;50.50;;;;;;20797742;28;20049;-43
2023/04/26 05:39:57;;;;;;;4.30;1.35;;;4.40;37.60;;;;;;20798346;28;20041;-43
2023/04/26 05:49:58;;;;;;;7.07;2.38;;;4.70;16.70;;;;;;20789418;28;20064;-43
2023/04/26 05:59:59;;;;;;;3.08;0.93;;;5.20;1.00;;;;;;20766937;28;21677;-43
2023/04/26 06:10:01;;;;;;;2.30;0.98;;;5.60;1.00;;;;;;20777521;28;20034;-43
2023/04/26 06:20:04;;;;;;;4.72;0.98;;;5.60;1.00;;;;;;20793434;28;20037;-43
2023/04/26 06:30:08;;;;;;;5.28;0.88;;;5.70;1.00;;;;;;20784202;28;20033;-43
2023/04/26 06:40:10;;;;;;;2.28;0.88;;;5.90;1.00;;;;;;20776818;28;20045;-43
2023/04/26 06:50:11;;;;;;;3.80;1.58;;;6.20;1.00;;;;;;20807813;28;20048;-43
2023/04/26 07:00:13;;;;;;;4.80;2.10;;;6.60;1.00;;;;;;20788638;28;20051;-43
2023/04/26 07:10:15;;;;;;;4.90;0.73;;;7.00;1.00;;;;;;20820337;28;20045;-43
2023/04/26 07:20:19;;;;;;;1.88;0.57;;;7.10;1.00;;;;;;20818147;28;20041;-43
2023/04/26 07:30:20;;;;;;;1.20;0.60;;;7.30;1.00;;;;;;20828850;28;20048;-42
2023/04/26 07:40:25;;;;;;;1.80;0.90;;;7.50;1.00;;;;;;20818435;28;20037;-43
2023/04/26 07:50:26;;;;;;;2.17;0.65;;;7.60;1.00;;;;;;20819902;28;20052;-42
2023/04/26 08:00:27;;;;;;;2.53;0.70;;;7.60;1.00;;;;;;20806738;28;20048;-43
2023/04/26 08:10:29;;;;;;;1.63;0.90;;;7.60;1.00;;;;;;20791890;28;20390;-43
2023/04/26 08:20:31;;;;;;;2.35;0.77;;;7.40;1.00;;;;;;20817002;28;20045;-43
2023/04/26 08:30:32;;;;;;;1.98;1.00;;;7.40;1.00;;;;;;20815744;28;20033;-43
2023/04/26 08:40:35;;;;;;;1.80;0.80;;;7.60;1.00;;;;;;20814158;28;20033;-43
2023/04/26 08:50:38;;;;;;;3.53;0.73;;;7.90;1.00;;;;;;20821341;28;20033;-43
2023/04/26 09:00:41;;;;;;;2.42;0.90;;;8.40;1.00;;;;;;20810086;28;20508;-43
2023/04/26 09:10:42;;;;;;;2.85;1.38;;;8.70;1.00;;;;;;20817589;28;20037;-43
2023/04/26 09:20:44;;;;;;;2.50;0.70;;;8.80;1.00;;;;;;20808165;28;20038;-43
2023/04/26 09:30:46;;;;;;;1.70;0.80;;;8.80;1.00;;;;;;20807727;28;21695;-43
2023/04/26 09:40:48;;;;;;;4.55;1.00;;;8.60;1.00;;;;;;20809650;28;20046;-43
2023/04/26 09:50:54;;;;;;;14.82;5.47;;;8.30;1.00;;;;;;20804799;28;20219;-43
2023/04/26 10:00:56;;;;;;;13.85;5.60;;;7.90;1.00;;;;;;20813798;28;20033;-43
2023/04/26 10:10:58;;;;;;;2.25;0.88;;;7.60;1.00;;;;;;20802400;28;20405;-43
2023/04/26 10:21:39;;;;;;;1.75;0.60;;;7.70;1.00;;;;;;20809096;28;20041;-43
2023/04/26 10:32:16;;;;;;;1.23;0.60;;;7.70;1.00;;;;;;20804979;28;20102;-42
2023/04/26 10:42:29;;;;;;;2.13;0.70;;;8.10;1.00;;;;;;20770938;28;20883;-43
2023/04/26 10:52:30;;;;;;;1.60;0.68;;;8.50;1.00;;;;;;20807480;28;20045;-43
2023/04/26 11:03:04;;;;;;;2.00;0.93;;;9.30;1.00;;;;;;20800566;28;20112;-43
2023/04/26 11:13:05;;;;;;;1.75;0.80;;;9.70;1.00;;;;;;20797529;28;20037;-43
2023/04/26 11:23:07;;;;;;;1.40;0.52;;;9.50;1.00;;;;;;20803356;28;20488;-43
2023/04/26 11:33:19;;;;;;;3.58;0.60;;;9.50;1.00;;;;;;20809873;28;20049;-43
2023/04/26 11:43:20;;;;;;;4.53;0.65;;;9.50;1.00;;;;;;20802125;28;20184;-43
2023/04/26 11:53:23;;;;;;;3.08;0.70;;;9.40;1.00;;;;;;20799492;28;20083;-43
2023/04/26 12:03:49;;;;;;;1.40;0.57;;;9.60;1.00;;;;;;20815737;28;20045;-44
2023/04/26 12:13:51;;;;;;;4.30;0.85;;;10.40;1.00;;;;;;20816961;28;20056;-44
2023/04/26 12:23:52;;;;;;;1.10;0.50;;;10.90;1.00;;;;;;20780492;28;20428;-43
2023/04/26 12:33:53;;;;;;;4.78;0.68;;;11.00;1.00;;;;;;20812760;28;20045;-42
2023/04/26 12:43:56;;;;;;;2.08;0.90;;;11.00;1.00;;;;;;20810749;28;20055;-42
2023/04/26 12:53:57;;;;;;;2.17;1.10;;;11.10;1.00;;;;;;20806586;28;20075;-42
2023/04/26 13:03:59;;;;;;;1.42;0.50;;;11.20;1.00;;;;;;20816715;28;20213;-42
2023/04/26 13:14:01;;;;;;;3.83;0.65;;;11.50;1.00;;;;;;20820499;28;20293;-43
2023/04/26 13:24:02;;;;;;;2.70;0.95;;;12.30;1.00;;;;;;20803316;28;20044;-43
2023/04/26 13:34:04;;;;;;;2.15;0.98;;;12.10;1.00;;;;;;20809101;28;20064;-43
2023/04/26 13:44:05;;;;;;;5.38;2.47;;;11.40;1.00;;;;;;20802357;28;20717;-43
2023/04/26 13:54:06;;;;;;;3.20;1.08;;;10.90;1.00;;;;;;20807531;28;20067;-43
2023/04/26 14:04:07;;;;;;;1.30;0.85;;;10.80;1.00;;;;;;20804421;28;20040;-42
2023/04/26 14:14:10;;;;;;;2.28;0.98;;;10.60;1.00;;;;;;20799111;28;20520;-43
2023/04/26 14:24:12;;;;;;;1.77;0.82;;;11.00;1.00;;;;;;20799245;28;20033;-42
2023/04/26 14:34:13;;;;;;;2.40;1.05;;;11.00;1.00;;;;;;20800240;28;20144;-43
2023/04/26 14:44:15;;;;;;;2.53;0.57;;;10.80;1.00;;;;;;20807034;28;20388;-43
2023/04/26 14:54:17;;;;;;;2.92;1.58;;;10.80;1.00;;;;;;20803867;28;20401;-42
2023/04/26 15:04:17;;;;;;;2.05;0.82;;;10.60;1.00;;;;;;20776880;28;20029;-42
2023/04/26 15:14:19;;;;;;;1.80;0.50;;;10.60;1.00;;;;;;20787039;28;20037;-42
2023/04/26 15:24:20;;;;;;;3.15;0.90;;;10.50;1.00;;;;;;20779549;28;20033;-43
2023/04/26 15:34:24;;;;;;;3.42;1.58;;;10.30;1.00;;;;;;20802728;28;20067;-42
2023/04/26 15:44:25;;;;;;;3.53;0.68;;;9.90;1.00;;;;;;20814253;28;20134;-43
2023/04/26 15:54:26;;;;;;;1.42;0.77;;;9.80;1.00;;;;;;20810279;28;20056;-43
2023/04/26 16:04:27;;;;;;;1.25;0.43;;;9.70;1.00;;;;;;20800714;28;20041;-43
2023/04/26 16:14:30;;;;;;;2.38;0.60;;;9.60;1.00;;;;;;20811705;28;20145;-43
2023/04/26 16:24:31;;;;;;;0.90;0.40;;;9.60;1.00;;;;;;20820980;28;20037;-43
2023/04/26 16:34:32;;;;;;;2.35;1.10;;;9.60;1.00;;;;;;20719078;28;20044;-43
2023/04/26 16:44:33;;;;;;;1.00;0.30;;;9.60;1.00;;;;;;20810217;28;20044;-43
2023/04/26 16:54:34;;;;;;;6.50;0.50;;;9.50;1.00;;;;;;20794745;28;20048;-43
2023/04/26 17:04:35;;;;;;;1.58;0.70;;;9.40;1.00;;;;;;20787581;28;20029;-44
2023/04/26 17:14:36;;;;;;;1.88;0.77;;;9.40;1.00;;;;;;20798580;28;20048;-43
2023/04/26 17:24:37;;;;;;;1.55;0.65;;;9.50;1.00;;;;;;20795424;28;20044;-43
2023/04/26 17:34:38;;;;;;;6.88;2.17;;;9.60;1.00;;;;;;20797741;28;20036;-43
2023/04/26 17:44:39;;;;;;;6.07;1.23;;;9.40;1.00;;;;;;20791046;28;20227;-43
2023/04/26 17:54:40;;;;;;;3.30;0.80;;;9.20;1.00;;;;;;20803909;28;20406;-43
2023/04/26 18:04:41;;;;;;;1.38;0.52;;;9.20;1.00;;;;;;20789103;28;20045;-43
2023/04/26 18:14:45;;;;;;;2.60;1.08;;;9.20;1.00;;;;;;20802737;28;20515;-43
2023/04/26 18:24:46;;;;;;;1.33;0.40;;;9.10;1.00;;;;;;20706590;28;20053;-43
2023/04/26 18:34:52;;;;;;;4.20;1.38;;;9.00;1.00;;;;;;20807514;28;20528;-43
2023/04/26 18:44:53;;;;;;;2.33;0.52;;;8.80;1.00;;;;;;20800577;28;20040;-43
2023/04/26 18:54:54;;;;;;;5.20;0.75;;;8.70;1.00;;;;;;20799489;28;20045;-43
2023/04/26 19:04:56;;;;;;;2.28;0.80;;;8.60;1.00;;;;;;20810320;28;20044;-43
2023/04/26 19:14:57;;;;;;;2.85;1.20;;;8.50;1.00;;;;;;20824077;28;20678;-43
2023/04/26 19:24:59;;;;;;;2.35;0.80;;;8.40;1.00;;;;;;20819165;28;20048;-43
2023/04/26 19:35:00;;;;;;;3.50;1.25;;;8.40;1.00;;;;;;20818000;28;20047;-43
2023/04/26 19:45:01;;;;;;;4.13;1.67;;;8.20;1.00;;;;;;20826926;28;20139;-43
2023/04/26 19:55:03;;;;;;;3.50;1.00;;;8.10;1.00;;;;;;20775803;28;20653;-43
2023/04/26 20:05:04;;;;;;;4.63;0.93;;;7.90;1.00;;;;;;20820574;28;20040;-43
2023/04/26 20:15:07;;;;;;;1.85;0.80;;;7.70;1.00;;;;;;20816718;28;20033;-42
2023/04/26 20:25:09;;;;;;;2.53;0.80;;;7.40;1.00;;;;;;20809158;28;20053;-43
2023/04/26 20:35:12;;;;;;;2.13;0.85;;;7.10;1.00;;;;;;20798604;28;20041;-43
2023/04/26 20:45:15;;;;;;;3.47;1.33;;;6.90;1.00;;;;;;20800553;28;20045;-43
2023/04/26 20:55:19;;;;;;;4.00;1.75;;;6.60;1.00;;;;;;20799844;28;20398;-43
2023/04/26 21:05:20;;;;;;;1.92;1.00;;;6.40;1.00;;;;;;20809058;28;20057;-42
2023/04/26 21:15:21;;;;;;;2.70;1.35;;;6.30;1.00;;;;;;20787616;28;20503;-43
2023/04/26 21:25:22;;;;;;;2.30;1.27;;;6.10;1.00;;;;;;20796123;28;20042;-43
2023/04/26 21:35:23;;;;;;;4.80;1.77;;;5.90;1.00;;;;;;20802227;28;20040;-43
2023/04/26 21:45:27;;;;;;;4.40;1.88;;;5.80;1.00;;;;;;20791601;28;20051;-42
2023/04/26 21:55:28;;;;;;;5.38;1.65;;;5.60;1.00;;;;;;20808864;28;20419;-42
2023/04/26 22:05:29;;;;;;;3.45;1.77;;;5.60;1.00;;;;;;20807666;28;20068;-42
2023/04/26 22:15:31;;;;;;;5.60;2.13;;;5.40;1.00;;;;;;20797915;28;20583;-42
2023/04/26 22:25:32;;;;;;;5.82;2.08;;;5.30;1.00;;;;;;20798169;28;20037;-42
2023/04/26 22:35:34;;;;;;;4.25;1.27;;;5.20;1.00;;;;;;20792227;28;20073;-42
2023/04/26 22:45:35;;;;;;;3.00;1.40;;;5.10;1.00;;;;;;20784203;28;20514;-42
2023/04/26 22:55:36;;;;;;;2.38;0.88;;;5.00;1.00;;;;;;20799005;28;20052;-43
2023/04/26 23:05:37;;;;;;;3.10;1.38;;;4.90;1.00;;;;;;20787359;28;20025;-42
2023/04/26 23:15:40;;;;;;;3.50;1.30;;;4.80;1.00;;;;;;20794327;28;20178;-42
2023/04/26 23:25:41;;;;;;;3.28;1.40;;;4.70;1.00;;;;;;20789422;28;20037;-42
2023/04/26 23:35:42;;;;;;;4.35;1.50;;;4.60;1.00;;;;;;20787821;28;20446;-43
2023/04/26 23:45:46;;;;;;;5.45;1.95;;;4.50;1.00;;;;;;20767448;28;20041;-42
2023/04/26 23:55:47;;;;;;;5.75;1.75;;;4.40;1.00;;;;;;20803427;28;20400;-42
